sensor_id;sensor_type;location;lat;lon;timestamp;P1;durP1;ratioP1;P2;durP2;ratioP2
7901;SDS011;3996;49.674;10.716;2024-02-23T00:01:31;1.33;;;0.40;;
7901;SDS011;3996;49.674;10.716;2024-02-23T00:03:57;0.63;;;0.50;;
7901;SDS011;3996;49.674;10.716;2024-02-23T00:06:22;1.00;;;0.70;;
7901;SDS011;3996;49.674;10.716;2024-02-23T00:08:52;1.77;;;0.47;;
7901;SDS011;3996;49.674;10.716;2024-02-23T00:11:21;1.37;;;0.40;;
7901;SDS011;3996;49.674;10.716;2024-02-23T00:13:46;1.23;;;0.43;;
7901;SDS011;3996;49.674;10.716;2024-02-23T00:16:12;0.50;;;0.50;;
7901;SDS011;3996;49.674;10.716;2024-02-23T00:18:38;1.90;;;0.57;;
7901;SDS011;3996;49.674;10.716;2024-02-23T00:21:03;0.53;;;0.40;;
7901;SDS011;3996;49.674;10.716;2024-02-23T00:23:29;0.50;;;0.50;;
7901;SDS011;3996;49.674;10.716;2024-02-23T00:25:55;0.83;;;0.60;;
7901;SDS011;3996;49.674;10.716;2024-02-23T00:28:21;1.20;;;0.40;;
7901;SDS011;3996;49.674;10.716;2024-02-23T00:30:46;0.40;;;0.40;;
7901;SDS011;3996;49.674;10.716;2024-02-23T00:33:12;0.87;;;0.77;;
7901;SDS011;3996;49.674;10.716;2024-02-23T00:35:37;0.40;;;0.40;;
7901;SDS011;3996;49.674;10.716;2024-02-23T00:38:03;1.10;;;0.60;;
7901;SDS011;3996;49.674;10.716;2024-02-23T00:40:29;1.03;;;0.40;;
7901;SDS011;3996;49.674;10.716;2024-02-23T00:42:54;0.57;;;0.33;;
7901;SDS011;3996;49.674;10.716;2024-02-23T00:45:20;0.60;;;0.50;;
7901;SDS011;3996;49.674;10.716;2024-02-23T00:47:46;0.47;;;0.30;;
7901;SDS011;3996;49.674;10.716;2024-02-23T00:50:12;0.97;;;0.50;;
7901;SDS011;3996;49.674;10.716;2024-02-23T00:52:39;1.73;;;0.47;;
7901;SDS011;3996;49.674;10.716;2024-02-23T00:55:06;1.13;;;0.60;;
7901;SDS011;3996;49.674;10.716;2024-02-23T00:57:33;0.40;;;0.40;;
7901;SDS011;3996;49.674;10.716;2024-02-23T00:59:59;2.00;;;0.57;;
7901;SDS011;3996;49.674;10.716;2024-02-23T01:02:24;2.07;;;0.50;;
7901;SDS011;3996;49.674;10.716;2024-02-23T01:04:50;0.50;;;0.50;;
7901;SDS011;3996;49.674;10.716;2024-02-23T01:07:15;1.47;;;0.60;;
7901;SDS011;3996;49.674;10.716;2024-02-23T01:09:41;0.33;;;0.30;;
7901;SDS011;3996;49.674;10.716;2024-02-23T01:12:07;0.47;;;0.47;;
7901;SDS011;3996;49.674;10.716;2024-02-23T01:14:32;0.60;;;0.60;;
7901;SDS011;3996;49.674;10.716;2024-02-23T01:16:58;1.30;;;0.47;;
7901;SDS011;3996;49.674;10.716;2024-02-23T01:19:24;0.87;;;0.70;;
7901;SDS011;3996;49.674;10.716;2024-02-23T01:21:49;1.00;;;0.50;;
7901;SDS011;3996;49.674;10.716;2024-02-23T01:24:21;0.57;;;0.40;;
7901;SDS011;3996;49.674;10.716;2024-02-23T01:26:47;0.60;;;0.40;;
7901;SDS011;3996;49.674;10.716;2024-02-23T01:29:12;1.00;;;0.40;;
7901;SDS011;3996;49.674;10.716;2024-02-23T01:31:38;0.40;;;0.40;;
7901;SDS011;3996;49.674;10.716;2024-02-23T01:34:03;1.07;;;0.60;;
7901;SDS011;3996;49.674;10.716;2024-02-23T01:36:29;1.17;;;0.63;;
7901;SDS011;3996;49.674;10.716;2024-02-23T01:38:54;0.40;;;0.40;;
7901;SDS011;3996;49.674;10.716;2024-02-23T01:41:20;0.80;;;0.60;;
7901;SDS011;3996;49.674;10.716;2024-02-23T01:43:46;0.50;;;0.50;;
7901;SDS011;3996;49.674;10.716;2024-02-23T01:46:12;0.47;;;0.47;;
7901;SDS011;3996;49.674;10.716;2024-02-23T01:48:37;0.90;;;0.50;;
7901;SDS011;3996;49.674;10.716;2024-02-23T01:51:03;2.23;;;0.60;;
7901;SDS011;3996;49.674;10.716;2024-02-23T01:53:29;1.10;;;0.57;;
7901;SDS011;3996;49.674;10.716;2024-02-23T01:55:55;1.53;;;0.67;;
7901;SDS011;3996;49.674;10.716;2024-02-23T01:58:21;1.50;;;0.50;;
7901;SDS011;3996;49.674;10.716;2024-02-23T02:00:47;1.30;;;0.60;;
7901;SDS011;3996;49.674;10.716;2024-02-23T02:03:12;2.07;;;0.53;;
7901;SDS011;3996;49.674;10.716;2024-02-23T02:05:38;0.97;;;0.60;;
7901;SDS011;3996;49.674;10.716;2024-02-23T02:08:04;1.00;;;0.60;;
7901;SDS011;3996;49.674;10.716;2024-02-23T02:10:30;1.97;;;0.60;;
7901;SDS011;3996;49.674;10.716;2024-02-23T02:13:01;1.27;;;0.60;;
7901;SDS011;3996;49.674;10.716;2024-02-23T02:15:30;0.40;;;0.40;;
7901;SDS011;3996;49.674;10.716;2024-02-23T02:17:56;1.00;;;0.60;;
7901;SDS011;3996;49.674;10.716;2024-02-23T02:20:23;2.37;;;1.10;;
7901;SDS011;3996;49.674;10.716;2024-02-23T02:22:51;1.20;;;0.70;;
7901;SDS011;3996;49.674;10.716;2024-02-23T02:25:16;2.70;;;0.60;;
7901;SDS011;3996;49.674;10.716;2024-02-23T02:27:42;1.23;;;0.50;;
7901;SDS011;3996;49.674;10.716;2024-02-23T02:30:10;2.10;;;0.80;;
7901;SDS011;3996;49.674;10.716;2024-02-23T02:32:37;2.33;;;0.70;;
7901;SDS011;3996;49.674;10.716;2024-02-23T02:35:02;2.47;;;0.67;;
7901;SDS011;3996;49.674;10.716;2024-02-23T02:37:28;1.60;;;0.60;;
7901;SDS011;3996;49.674;10.716;2024-02-23T02:39:54;1.23;;;0.60;;
7901;SDS011;3996;49.674;10.716;2024-02-23T02:42:19;0.60;;;0.40;;
7901;SDS011;3996;49.674;10.716;2024-02-23T02:44:45;2.50;;;0.67;;
7901;SDS011;3996;49.674;10.716;2024-02-23T02:47:11;1.63;;;0.57;;
7901;SDS011;3996;49.674;10.716;2024-02-23T02:49:39;2.93;;;0.83;;
7901;SDS011;3996;49.674;10.716;2024-02-23T02:52:05;1.30;;;0.80;;
7901;SDS011;3996;49.674;10.716;2024-02-23T02:54:31;1.43;;;0.60;;
7901;SDS011;3996;49.674;10.716;2024-02-23T02:56:56;1.07;;;0.63;;
7901;SDS011;3996;49.674;10.716;2024-02-23T02:59:22;3.00;;;0.70;;
7901;SDS011;3996;49.674;10.716;2024-02-23T03:01:48;1.33;;;0.90;;
7901;SDS011;3996;49.674;10.716;2024-02-23T03:04:14;3.03;;;0.67;;
7901;SDS011;3996;49.674;10.716;2024-02-23T03:06:39;2.30;;;0.70;;
7901;SDS011;3996;49.674;10.716;2024-02-23T03:09:05;2.70;;;0.83;;
7901;SDS011;3996;49.674;10.716;2024-02-23T03:11:32;1.97;;;0.80;;
7901;SDS011;3996;49.674;10.716;2024-02-23T03:13:57;2.30;;;0.80;;
7901;SDS011;3996;49.674;10.716;2024-02-23T03:16:23;2.50;;;1.00;;
7901;SDS011;3996;49.674;10.716;2024-02-23T03:18:51;3.27;;;1.00;;
7901;SDS011;3996;49.674;10.716;2024-02-23T03:21:17;2.33;;;0.90;;
7901;SDS011;3996;49.674;10.716;2024-02-23T03:23:42;1.87;;;0.83;;
7901;SDS011;3996;49.674;10.716;2024-02-23T03:26:08;2.03;;;0.70;;
7901;SDS011;3996;49.674;10.716;2024-02-23T03:28:33;3.47;;;0.80;;
7901;SDS011;3996;49.674;10.716;2024-02-23T03:31:02;5.07;;;0.90;;
7901;SDS011;3996;49.674;10.716;2024-02-23T03:33:28;2.93;;;0.80;;
7901;SDS011;3996;49.674;10.716;2024-02-23T03:35:53;2.87;;;0.87;;
7901;SDS011;3996;49.674;10.716;2024-02-23T03:38:20;5.00;;;0.70;;
7901;SDS011;3996;49.674;10.716;2024-02-23T03:40:46;2.27;;;0.70;;
7901;SDS011;3996;49.674;10.716;2024-02-23T03:43:11;4.27;;;1.00;;
7901;SDS011;3996;49.674;10.716;2024-02-23T03:45:37;2.77;;;1.10;;
7901;SDS011;3996;49.674;10.716;2024-02-23T03:48:03;2.07;;;1.00;;
7901;SDS011;3996;49.674;10.716;2024-02-23T03:50:30;3.47;;;1.00;;
7901;SDS011;3996;49.674;10.716;2024-02-23T03:52:55;2.37;;;0.87;;
7901;SDS011;3996;49.674;10.716;2024-02-23T03:55:21;1.83;;;0.80;;
7901;SDS011;3996;49.674;10.716;2024-02-23T03:57:47;4.03;;;1.07;;
7901;SDS011;3996;49.674;10.716;2024-02-23T04:00:13;2.10;;;0.87;;
7901;SDS011;3996;49.674;10.716;2024-02-23T04:02:39;6.27;;;1.10;;
7901;SDS011;3996;49.674;10.716;2024-02-23T04:05:05;2.53;;;1.00;;
7901;SDS011;3996;49.674;10.716;2024-02-23T04:07:31;4.73;;;0.90;;
7901;SDS011;3996;49.674;10.716;2024-02-23T04:09:56;2.10;;;0.83;;
7901;SDS011;3996;49.674;10.716;2024-02-23T04:12:22;1.60;;;0.90;;
7901;SDS011;3996;49.674;10.716;2024-02-23T04:14:48;1.57;;;0.77;;
7901;SDS011;3996;49.674;10.716;2024-02-23T04:17:14;2.03;;;1.07;;
7901;SDS011;3996;49.674;10.716;2024-02-23T04:19:40;4.07;;;1.00;;
7901;SDS011;3996;49.674;10.716;2024-02-23T04:22:07;4.00;;;1.27;;
7901;SDS011;3996;49.674;10.716;2024-02-23T04:24:39;2.90;;;1.00;;
7901;SDS011;3996;49.674;10.716;2024-02-23T04:27:05;3.70;;;1.10;;
7901;SDS011;3996;49.674;10.716;2024-02-23T04:29:32;3.07;;;0.90;;
7901;SDS011;3996;49.674;10.716;2024-02-23T04:31:59;4.30;;;0.90;;
7901;SDS011;3996;49.674;10.716;2024-02-23T04:34:25;3.53;;;0.80;;
7901;SDS011;3996;49.674;10.716;2024-02-23T04:36:50;3.37;;;0.90;;
7901;SDS011;3996;49.674;10.716;2024-02-23T04:39:16;4.27;;;1.43;;
7901;SDS011;3996;49.674;10.716;2024-02-23T04:41:42;2.33;;;0.90;;
7901;SDS011;3996;49.674;10.716;2024-02-23T04:44:07;2.43;;;1.20;;
7901;SDS011;3996;49.674;10.716;2024-02-23T04:46:33;3.73;;;1.20;;
7901;SDS011;3996;49.674;10.716;2024-02-23T04:48:59;2.17;;;1.00;;
7901;SDS011;3996;49.674;10.716;2024-02-23T04:51:25;3.30;;;0.90;;
7901;SDS011;3996;49.674;10.716;2024-02-23T04:53:51;3.07;;;0.93;;
7901;SDS011;3996;49.674;10.716;2024-02-23T04:56:16;2.53;;;0.87;;
7901;SDS011;3996;49.674;10.716;2024-02-23T04:58:43;2.70;;;0.90;;
7901;SDS011;3996;49.674;10.716;2024-02-23T05:01:08;1.70;;;0.80;;
7901;SDS011;3996;49.674;10.716;2024-02-23T05:03:34;4.13;;;0.73;;
7901;SDS011;3996;49.674;10.716;2024-02-23T05:06:01;2.83;;;0.80;;
7901;SDS011;3996;49.674;10.716;2024-02-23T05:08:27;1.70;;;0.70;;
7901;SDS011;3996;49.674;10.716;2024-02-23T05:10:52;3.20;;;0.73;;
7901;SDS011;3996;49.674;10.716;2024-02-23T05:13:18;2.60;;;0.97;;
7901;SDS011;3996;49.674;10.716;2024-02-23T05:15:44;2.23;;;0.60;;
7901;SDS011;3996;49.674;10.716;2024-02-23T05:18:09;1.23;;;0.80;;
7901;SDS011;3996;49.674;10.716;2024-02-23T05:20:35;2.40;;;0.87;;
7901;SDS011;3996;49.674;10.716;2024-02-23T05:23:01;2.97;;;1.17;;
7901;SDS011;3996;49.674;10.716;2024-02-23T05:25:26;2.93;;;1.40;;
7901;SDS011;3996;49.674;10.716;2024-02-23T05:27:53;3.90;;;0.80;;
7901;SDS011;3996;49.674;10.716;2024-02-23T05:30:18;4.53;;;1.10;;
7901;SDS011;3996;49.674;10.716;2024-02-23T05:32:44;3.37;;;0.80;;
7901;SDS011;3996;49.674;10.716;2024-02-23T05:35:10;2.13;;;1.03;;
7901;SDS011;3996;49.674;10.716;2024-02-23T05:37:36;3.10;;;1.27;;
7901;SDS011;3996;49.674;10.716;2024-02-23T05:40:04;3.57;;;1.10;;
7901;SDS011;3996;49.674;10.716;2024-02-23T05:42:37;2.90;;;1.07;;
7901;SDS011;3996;49.674;10.716;2024-02-23T05:45:03;3.23;;;1.00;;
7901;SDS011;3996;49.674;10.716;2024-02-23T05:47:29;4.10;;;1.17;;
7901;SDS011;3996;49.674;10.716;2024-02-23T05:49:55;3.33;;;1.03;;
7901;SDS011;3996;49.674;10.716;2024-02-23T05:52:21;3.50;;;1.00;;
7901;SDS011;3996;49.674;10.716;2024-02-23T05:54:47;2.03;;;0.90;;
7901;SDS011;3996;49.674;10.716;2024-02-23T05:57:12;3.70;;;1.00;;
7901;SDS011;3996;49.674;10.716;2024-02-23T05:59:38;1.57;;;0.80;;
7901;SDS011;3996;49.674;10.716;2024-02-23T06:02:04;1.77;;;0.87;;
7901;SDS011;3996;49.674;10.716;2024-02-23T06:04:29;2.73;;;0.80;;
7901;SDS011;3996;49.674;10.716;2024-02-23T06:06:55;2.83;;;0.90;;
7901;SDS011;3996;49.674;10.716;2024-02-23T06:09:21;3.20;;;1.20;;
7901;SDS011;3996;49.674;10.716;2024-02-23T06:11:47;3.33;;;1.10;;
7901;SDS011;3996;49.674;10.716;2024-02-23T06:14:12;2.37;;;0.90;;
7901;SDS011;3996;49.674;10.716;2024-02-23T06:16:38;3.00;;;0.90;;
7901;SDS011;3996;49.674;10.716;2024-02-23T06:19:05;2.97;;;1.07;;
7901;SDS011;3996;49.674;10.716;2024-02-23T06:21:31;5.43;;;1.10;;
7901;SDS011;3996;49.674;10.716;2024-02-23T06:23:57;1.60;;;0.87;;
7901;SDS011;3996;49.674;10.716;2024-02-23T06:26:23;2.07;;;1.00;;
7901;SDS011;3996;49.674;10.716;2024-02-23T06:28:48;2.70;;;0.80;;
7901;SDS011;3996;49.674;10.716;2024-02-23T06:31:14;3.23;;;1.10;;
7901;SDS011;3996;49.674;10.716;2024-02-23T06:33:40;3.93;;;1.10;;
7901;SDS011;3996;49.674;10.716;2024-02-23T06:36:09;3.10;;;1.10;;
7901;SDS011;3996;49.674;10.716;2024-02-23T06:38:35;1.73;;;0.90;;
7901;SDS011;3996;49.674;10.716;2024-02-23T06:41:00;1.70;;;0.80;;
7901;SDS011;3996;49.674;10.716;2024-02-23T06:43:26;2.53;;;0.97;;
7901;SDS011;3996;49.674;10.716;2024-02-23T06:45:52;1.63;;;0.90;;
7901;SDS011;3996;49.674;10.716;2024-02-23T06:48:17;2.63;;;0.93;;
7901;SDS011;3996;49.674;10.716;2024-02-23T06:50:43;2.30;;;0.80;;
7901;SDS011;3996;49.674;10.716;2024-02-23T06:53:09;1.80;;;0.83;;
7901;SDS011;3996;49.674;10.716;2024-02-23T06:55:34;2.67;;;1.00;;
7901;SDS011;3996;49.674;10.716;2024-02-23T06:58:01;1.73;;;0.73;;
7901;SDS011;3996;49.674;10.716;2024-02-23T07:00:26;1.57;;;0.80;;
7901;SDS011;3996;49.674;10.716;2024-02-23T07:02:52;2.37;;;1.00;;
7901;SDS011;3996;49.674;10.716;2024-02-23T07:05:17;1.93;;;0.80;;
7901;SDS011;3996;49.674;10.716;2024-02-23T07:07:43;1.90;;;0.90;;
7901;SDS011;3996;49.674;10.716;2024-02-23T07:10:09;5.93;;;1.00;;
7901;SDS011;3996;49.674;10.716;2024-02-23T07:12:36;2.57;;;0.80;;
7901;SDS011;3996;49.674;10.716;2024-02-23T07:15:01;1.97;;;0.80;;
7901;SDS011;3996;49.674;10.716;2024-02-23T07:17:27;3.10;;;0.80;;
7901;SDS011;3996;49.674;10.716;2024-02-23T07:19:53;1.57;;;0.60;;
7901;SDS011;3996;49.674;10.716;2024-02-23T07:22:19;4.57;;;1.20;;
7901;SDS011;3996;49.674;10.716;2024-02-23T07:24:45;2.40;;;1.00;;
7901;SDS011;3996;49.674;10.716;2024-02-23T07:27:11;3.73;;;1.23;;
7901;SDS011;3996;49.674;10.716;2024-02-23T07:29:36;2.80;;;0.90;;
7901;SDS011;3996;49.674;10.716;2024-02-23T07:32:02;2.50;;;1.10;;
7901;SDS011;3996;49.674;10.716;2024-02-23T07:34:28;5.53;;;1.40;;
7901;SDS011;3996;49.674;10.716;2024-02-23T07:36:54;1.20;;;0.90;;
7901;SDS011;3996;49.674;10.716;2024-02-23T07:39:20;3.07;;;0.90;;
7901;SDS011;3996;49.674;10.716;2024-02-23T07:41:47;2.03;;;0.80;;
7901;SDS011;3996;49.674;10.716;2024-02-23T07:44:13;1.23;;;0.70;;
7901;SDS011;3996;49.674;10.716;2024-02-23T07:46:38;3.40;;;0.87;;
7901;SDS011;3996;49.674;10.716;2024-02-23T07:49:04;3.47;;;0.80;;
7901;SDS011;3996;49.674;10.716;2024-02-23T07:51:34;1.30;;;0.70;;
7901;SDS011;3996;49.674;10.716;2024-02-23T07:54:00;2.77;;;0.80;;
7901;SDS011;3996;49.674;10.716;2024-02-23T07:56:26;1.00;;;0.60;;
7901;SDS011;3996;49.674;10.716;2024-02-23T07:58:52;3.67;;;0.90;;
7901;SDS011;3996;49.674;10.716;2024-02-23T08:01:18;1.97;;;0.70;;
7901;SDS011;3996;49.674;10.716;2024-02-23T08:03:44;2.70;;;0.80;;
7901;SDS011;3996;49.674;10.716;2024-02-23T08:06:10;2.40;;;0.90;;
7901;SDS011;3996;49.674;10.716;2024-02-23T08:08:37;2.27;;;0.83;;
7901;SDS011;3996;49.674;10.716;2024-02-23T08:11:03;4.23;;;0.80;;
7901;SDS011;3996;49.674;10.716;2024-02-23T08:13:29;1.37;;;0.83;;
7901;SDS011;3996;49.674;10.716;2024-02-23T08:15:55;2.87;;;1.07;;
7901;SDS011;3996;49.674;10.716;2024-02-23T08:18:22;7.03;;;1.03;;
7901;SDS011;3996;49.674;10.716;2024-02-23T08:20:48;3.43;;;1.20;;
7901;SDS011;3996;49.674;10.716;2024-02-23T08:23:13;1.13;;;0.70;;
7901;SDS011;3996;49.674;10.716;2024-02-23T08:25:39;5.53;;;0.90;;
7901;SDS011;3996;49.674;10.716;2024-02-23T08:28:05;1.83;;;0.80;;
7901;SDS011;3996;49.674;10.716;2024-02-23T08:30:31;3.30;;;0.70;;
7901;SDS011;3996;49.674;10.716;2024-02-23T08:32:57;5.37;;;0.80;;
7901;SDS011;3996;49.674;10.716;2024-02-23T08:35:22;2.83;;;1.00;;
7901;SDS011;3996;49.674;10.716;2024-02-23T08:37:48;3.37;;;0.93;;
7901;SDS011;3996;49.674;10.716;2024-02-23T08:40:14;1.57;;;0.60;;
7901;SDS011;3996;49.674;10.716;2024-02-23T08:42:39;2.87;;;1.10;;
7901;SDS011;3996;49.674;10.716;2024-02-23T08:45:05;4.20;;;1.30;;
7901;SDS011;3996;49.674;10.716;2024-02-23T08:47:31;3.07;;;1.10;;
7901;SDS011;3996;49.674;10.716;2024-02-23T08:49:59;3.13;;;1.03;;
7901;SDS011;3996;49.674;10.716;2024-02-23T08:52:25;2.63;;;0.93;;
7901;SDS011;3996;49.674;10.716;2024-02-23T08:54:51;3.27;;;1.20;;
7901;SDS011;3996;49.674;10.716;2024-02-23T08:57:16;2.50;;;1.00;;
7901;SDS011;3996;49.674;10.716;2024-02-23T08:59:44;2.83;;;0.83;;
7901;SDS011;3996;49.674;10.716;2024-02-23T09:02:12;2.63;;;1.17;;
7901;SDS011;3996;49.674;10.716;2024-02-23T09:04:38;3.17;;;0.90;;
7901;SDS011;3996;49.674;10.716;2024-02-23T09:07:03;1.30;;;0.90;;
7901;SDS011;3996;49.674;10.716;2024-02-23T09:09:29;3.10;;;0.93;;
7901;SDS011;3996;49.674;10.716;2024-02-23T09:11:55;2.53;;;0.90;;
7901;SDS011;3996;49.674;10.716;2024-02-23T09:14:21;3.27;;;0.90;;
7901;SDS011;3996;49.674;10.716;2024-02-23T09:16:46;5.00;;;0.90;;
7901;SDS011;3996;49.674;10.716;2024-02-23T09:19:15;2.77;;;1.00;;
7901;SDS011;3996;49.674;10.716;2024-02-23T09:21:41;0.90;;;0.70;;
7901;SDS011;3996;49.674;10.716;2024-02-23T09:24:07;1.93;;;0.77;;
7901;SDS011;3996;49.674;10.716;2024-02-23T09:26:32;2.20;;;0.77;;
7901;SDS011;3996;49.674;10.716;2024-02-23T09:28:58;2.43;;;0.80;;
7901;SDS011;3996;49.674;10.716;2024-02-23T09:31:23;2.43;;;0.83;;
7901;SDS011;3996;49.674;10.716;2024-02-23T09:33:49;2.57;;;0.97;;
7901;SDS011;3996;49.674;10.716;2024-02-23T09:36:16;2.00;;;0.70;;
7901;SDS011;3996;49.674;10.716;2024-02-23T09:38:42;2.57;;;0.80;;
7901;SDS011;3996;49.674;10.716;2024-02-23T09:41:11;2.00;;;0.90;;
7901;SDS011;3996;49.674;10.716;2024-02-23T09:43:44;2.27;;;0.63;;
7901;SDS011;3996;49.674;10.716;2024-02-23T09:46:11;2.73;;;0.83;;
7901;SDS011;3996;49.674;10.716;2024-02-23T09:48:37;2.50;;;0.80;;
7901;SDS011;3996;49.674;10.716;2024-02-23T09:51:06;2.43;;;1.00;;
7901;SDS011;3996;49.674;10.716;2024-02-23T09:53:33;2.77;;;1.33;;
7901;SDS011;3996;49.674;10.716;2024-02-23T09:56:01;3.33;;;0.90;;
7901;SDS011;3996;49.674;10.716;2024-02-23T09:58:28;3.87;;;0.90;;
7901;SDS011;3996;49.674;10.716;2024-02-23T10:00:59;2.73;;;0.83;;
7901;SDS011;3996;49.674;10.716;2024-02-23T10:03:27;2.63;;;0.80;;
7901;SDS011;3996;49.674;10.716;2024-02-23T10:05:56;3.03;;;1.20;;
7901;SDS011;3996;49.674;10.716;2024-02-23T10:08:22;2.40;;;1.20;;
7901;SDS011;3996;49.674;10.716;2024-02-23T10:10:48;4.27;;;1.20;;
7901;SDS011;3996;49.674;10.716;2024-02-23T10:13:24;4.30;;;0.90;;
7901;SDS011;3996;49.674;10.716;2024-02-23T10:15:50;3.17;;;1.07;;
7901;SDS011;3996;49.674;10.716;2024-02-23T10:18:16;4.37;;;1.00;;
7901;SDS011;3996;49.674;10.716;2024-02-23T10:20:42;4.13;;;0.87;;
7901;SDS011;3996;49.674;10.716;2024-02-23T10:23:08;0.93;;;0.70;;
7901;SDS011;3996;49.674;10.716;2024-02-23T10:25:34;1.57;;;0.67;;
7901;SDS011;3996;49.674;10.716;2024-02-23T10:28:03;2.03;;;1.00;;
7901;SDS011;3996;49.674;10.716;2024-02-23T10:30:30;2.37;;;0.73;;
7901;SDS011;3996;49.674;10.716;2024-02-23T10:32:56;1.13;;;0.50;;
7901;SDS011;3996;49.674;10.716;2024-02-23T10:35:23;2.27;;;0.80;;
7901;SDS011;3996;49.674;10.716;2024-02-23T10:37:50;1.33;;;0.80;;
7901;SDS011;3996;49.674;10.716;2024-02-23T10:40:17;4.93;;;1.20;;
7901;SDS011;3996;49.674;10.716;2024-02-23T10:42:43;2.23;;;0.77;;
7901;SDS011;3996;49.674;10.716;2024-02-23T10:45:16;2.00;;;0.60;;
7901;SDS011;3996;49.674;10.716;2024-02-23T10:47:45;1.80;;;0.90;;
7901;SDS011;3996;49.674;10.716;2024-02-23T10:50:12;2.30;;;0.70;;
7901;SDS011;3996;49.674;10.716;2024-02-23T10:52:43;2.23;;;0.80;;
7901;SDS011;3996;49.674;10.716;2024-02-23T10:55:09;3.20;;;0.80;;
7901;SDS011;3996;49.674;10.716;2024-02-23T10:57:35;2.57;;;0.80;;
7901;SDS011;3996;49.674;10.716;2024-02-23T11:00:01;1.63;;;0.70;;
7901;SDS011;3996;49.674;10.716;2024-02-23T11:02:32;3.20;;;1.13;;
7901;SDS011;3996;49.674;10.716;2024-02-23T11:05:01;2.60;;;0.90;;
7901;SDS011;3996;49.674;10.716;2024-02-23T11:07:29;3.13;;;0.70;;
7901;SDS011;3996;49.674;10.716;2024-02-23T11:09:58;3.87;;;1.37;;
7901;SDS011;3996;49.674;10.716;2024-02-23T11:12:25;4.03;;;1.50;;
7901;SDS011;3996;49.674;10.716;2024-02-23T11:14:51;3.73;;;0.90;;
7901;SDS011;3996;49.674;10.716;2024-02-23T11:17:23;2.63;;;0.97;;
7901;SDS011;3996;49.674;10.716;2024-02-23T11:19:53;2.57;;;1.23;;
7901;SDS011;3996;49.674;10.716;2024-02-23T11:22:35;2.37;;;0.97;;
7901;SDS011;3996;49.674;10.716;2024-02-23T11:25:07;5.07;;;1.10;;
7901;SDS011;3996;49.674;10.716;2024-02-23T11:27:36;4.10;;;1.07;;
7901;SDS011;3996;49.674;10.716;2024-02-23T11:30:04;2.87;;;0.90;;
7901;SDS011;3996;49.674;10.716;2024-02-23T11:32:41;9.70;;;4.30;;
7901;SDS011;3996;49.674;10.716;2024-02-23T11:35:12;10.83;;;6.00;;
7901;SDS011;3996;49.674;10.716;2024-02-23T11:37:55;9.90;;;5.63;;
7901;SDS011;3996;49.674;10.716;2024-02-23T11:40:24;3.37;;;2.20;;
7901;SDS011;3996;49.674;10.716;2024-02-23T11:42:55;2.00;;;1.70;;
7901;SDS011;3996;49.674;10.716;2024-02-23T11:45:21;1.87;;;1.00;;
7901;SDS011;3996;49.674;10.716;2024-02-23T11:47:47;1.60;;;0.70;;
7901;SDS011;3996;49.674;10.716;2024-02-23T11:50:13;4.40;;;1.10;;
7901;SDS011;3996;49.674;10.716;2024-02-23T11:52:40;1.50;;;0.80;;
7901;SDS011;3996;49.674;10.716;2024-02-23T11:55:06;2.37;;;0.70;;
7901;SDS011;3996;49.674;10.716;2024-02-23T11:57:33;1.87;;;0.70;;
7901;SDS011;3996;49.674;10.716;2024-02-23T12:00:01;1.10;;;0.57;;
7901;SDS011;3996;49.674;10.716;2024-02-23T12:02:28;2.53;;;1.00;;
7901;SDS011;3996;49.674;10.716;2024-02-23T12:04:53;2.00;;;0.77;;
7901;SDS011;3996;49.674;10.716;2024-02-23T12:07:19;1.73;;;0.80;;
7901;SDS011;3996;49.674;10.716;2024-02-23T12:09:46;1.77;;;0.70;;
7901;SDS011;3996;49.674;10.716;2024-02-23T12:12:12;1.70;;;0.70;;
7901;SDS011;3996;49.674;10.716;2024-02-23T12:14:39;2.70;;;0.67;;
7901;SDS011;3996;49.674;10.716;2024-02-23T12:17:05;1.80;;;0.70;;
7901;SDS011;3996;49.674;10.716;2024-02-23T12:19:37;2.30;;;0.80;;
7901;SDS011;3996;49.674;10.716;2024-02-23T12:22:05;2.17;;;0.67;;
7901;SDS011;3996;49.674;10.716;2024-02-23T12:24:31;1.93;;;0.80;;
7901;SDS011;3996;49.674;10.716;2024-02-23T12:26:57;0.77;;;0.70;;
7901;SDS011;3996;49.674;10.716;2024-02-23T12:29:23;1.67;;;0.70;;
7901;SDS011;3996;49.674;10.716;2024-02-23T12:31:49;4.53;;;2.60;;
7901;SDS011;3996;49.674;10.716;2024-02-23T12:34:14;2.10;;;1.00;;
7901;SDS011;3996;49.674;10.716;2024-02-23T12:36:40;4.40;;;1.47;;
7901;SDS011;3996;49.674;10.716;2024-02-23T12:39:06;5.57;;;4.03;;
7901;SDS011;3996;49.674;10.716;2024-02-23T12:41:32;5.83;;;3.23;;
7901;SDS011;3996;49.674;10.716;2024-02-23T12:43:58;11.27;;;4.67;;
7901;SDS011;3996;49.674;10.716;2024-02-23T12:46:23;4.07;;;1.67;;
7901;SDS011;3996;49.674;10.716;2024-02-23T12:48:49;6.33;;;2.60;;
7901;SDS011;3996;49.674;10.716;2024-02-23T12:51:16;3.67;;;2.07;;
7901;SDS011;3996;49.674;10.716;2024-02-23T12:53:42;4.90;;;1.93;;
7901;SDS011;3996;49.674;10.716;2024-02-23T12:56:09;8.60;;;3.33;;
7901;SDS011;3996;49.674;10.716;2024-02-23T12:58:36;9.73;;;4.10;;
7901;SDS011;3996;49.674;10.716;2024-02-23T13:01:03;23.73;;;10.63;;
7901;SDS011;3996;49.674;10.716;2024-02-23T13:03:29;41.53;;;16.83;;
7901;SDS011;3996;49.674;10.716;2024-02-23T13:05:55;39.60;;;14.13;;
7901;SDS011;3996;49.674;10.716;2024-02-23T13:08:22;36.73;;;12.47;;
7901;SDS011;3996;49.674;10.716;2024-02-23T13:10:48;9.70;;;3.10;;
7901;SDS011;3996;49.674;10.716;2024-02-23T13:13:14;5.30;;;1.87;;
7901;SDS011;3996;49.674;10.716;2024-02-23T13:15:41;5.17;;;2.00;;
7901;SDS011;3996;49.674;10.716;2024-02-23T13:18:07;23.77;;;7.37;;
7901;SDS011;3996;49.674;10.716;2024-02-23T13:20:33;12.37;;;11.07;;
7901;SDS011;3996;49.674;10.716;2024-02-23T13:22:58;3.37;;;2.50;;
7901;SDS011;3996;49.674;10.716;2024-02-23T13:25:24;1.50;;;1.03;;
7901;SDS011;3996;49.674;10.716;2024-02-23T13:27:49;1.33;;;0.80;;
7901;SDS011;3996;49.674;10.716;2024-02-23T13:30:15;1.33;;;0.90;;
7901;SDS011;3996;49.674;10.716;2024-02-23T13:32:41;2.70;;;1.00;;
7901;SDS011;3996;49.674;10.716;2024-02-23T13:35:06;2.27;;;0.90;;
7901;SDS011;3996;49.674;10.716;2024-02-23T13:37:33;1.77;;;1.00;;
7901;SDS011;3996;49.674;10.716;2024-02-23T13:39:59;1.10;;;0.80;;
7901;SDS011;3996;49.674;10.716;2024-02-23T13:42:25;2.47;;;1.13;;
7901;SDS011;3996;49.674;10.716;2024-02-23T13:44:51;1.47;;;1.03;;
7901;SDS011;3996;49.674;10.716;2024-02-23T13:47:17;1.63;;;1.00;;
7901;SDS011;3996;49.674;10.716;2024-02-23T13:49:42;1.53;;;1.10;;
7901;SDS011;3996;49.674;10.716;2024-02-23T13:52:08;2.83;;;1.00;;
7901;SDS011;3996;49.674;10.716;2024-02-23T13:54:33;3.20;;;0.80;;
7901;SDS011;3996;49.674;10.716;2024-02-23T13:56:59;2.27;;;1.00;;
7901;SDS011;3996;49.674;10.716;2024-02-23T13:59:25;1.97;;;0.90;;
7901;SDS011;3996;49.674;10.716;2024-02-23T14:01:50;1.60;;;0.90;;
7901;SDS011;3996;49.674;10.716;2024-02-23T14:04:16;3.20;;;1.10;;
7901;SDS011;3996;49.674;10.716;2024-02-23T14:06:42;1.30;;;0.80;;
7901;SDS011;3996;49.674;10.716;2024-02-23T14:09:08;2.80;;;1.10;;
7901;SDS011;3996;49.674;10.716;2024-02-23T14:11:34;3.70;;;1.00;;
7901;SDS011;3996;49.674;10.716;2024-02-23T14:14:00;1.37;;;0.90;;
7901;SDS011;3996;49.674;10.716;2024-02-23T14:16:27;2.60;;;1.53;;
7901;SDS011;3996;49.674;10.716;2024-02-23T14:18:53;1.10;;;1.00;;
7901;SDS011;3996;49.674;10.716;2024-02-23T14:21:19;3.27;;;1.40;;
7901;SDS011;3996;49.674;10.716;2024-02-23T14:23:46;1.83;;;1.00;;
7901;SDS011;3996;49.674;10.716;2024-02-23T14:26:11;2.30;;;1.23;;
7901;SDS011;3996;49.674;10.716;2024-02-23T14:28:37;3.03;;;1.30;;
7901;SDS011;3996;49.674;10.716;2024-02-23T14:31:03;4.10;;;1.20;;
7901;SDS011;3996;49.674;10.716;2024-02-23T14:33:29;4.07;;;2.57;;
7901;SDS011;3996;49.674;10.716;2024-02-23T14:35:55;3.20;;;1.80;;
7901;SDS011;3996;49.674;10.716;2024-02-23T14:38:20;4.43;;;2.70;;
7901;SDS011;3996;49.674;10.716;2024-02-23T14:40:47;4.47;;;2.20;;
7901;SDS011;3996;49.674;10.716;2024-02-23T14:43:12;3.33;;;1.80;;
7901;SDS011;3996;49.674;10.716;2024-02-23T14:45:38;7.07;;;3.60;;
7901;SDS011;3996;49.674;10.716;2024-02-23T14:48:04;5.47;;;2.57;;
7901;SDS011;3996;49.674;10.716;2024-02-23T14:50:30;5.43;;;1.30;;
7901;SDS011;3996;49.674;10.716;2024-02-23T14:52:55;11.40;;;5.23;;
7901;SDS011;3996;49.674;10.716;2024-02-23T14:55:21;11.83;;;6.30;;